Flight Track Log - Related Links

Times and Time Zones

All times are in EDT time to prevent confusion due to time zone crossing. See the GLA21F flight status page for this flight to view local times or setup timezone preferences in your user account.


Time Position Orientation Groundspeed Altitude Reporting Facility
EDT Latitude Longitude Course Direction KTS MPH feet Rate Location/Type
Fri 08:32:38 AM 36.7400 -108.2478 41° Northeast 200 230 5,900  Level Denver Center
Fri 08:33:39 AM 36.7772 -108.2658 339° North 183 211 7,300 1,686 Climbing Denver Center
Fri 08:34:39 AM 36.7731 -108.1983 94° East 178 205 9,300 1,636 Climbing Denver Center
Fri 08:35:40 AM 36.7636 -108.1394 101° East 179 206 10,600 1,377 Climbing Denver Center
Fri 08:36:00 AM 37.1048 -107.8369 41° Northeast  Level Estimated
Fri 08:36:41 AM 36.7622 -108.0792 92° East 187 215 12,100  Level Denver Center
Fri 08:37:00 AM 37.1566 -107.7804 41° Northeast  Level Estimated
Fri 08:37:42 AM 36.8164 -108.0567 18° North 184 212 13,900  Level Denver Center
Fri 08:38:00 AM 37.2084 -107.7239 41° Northeast  Level Estimated
Fri 08:38:43 AM 36.8622 -108.0375 18° North 182 209 15,100  Level Denver Center
Fri 08:39:43 AM 36.9094 -108.0178 18° North 184 212 16,300 1,289 Climbing Denver Center
Fri 08:40:44 AM 36.9594 -107.9839 28° Northeast 184 212 17,700 1,033 Climbing Denver Center
Fri 08:41:45 AM 37.0014 -107.9489 34° Northeast 187 215 18,400 787 Climbing Denver Center
Fri 08:42:46 AM 37.0494 -107.9194 26° Northeast 194 223 19,300 934 Climbing Denver Center
Fri 08:43:47 AM 37.1083 -107.8919 20° North 200 230 20,300 934 Climbing Denver Center
Fri 08:44:48 AM 37.1583 -107.8658 23° Northeast 204 235 21,200 843 Climbing Denver Center
Fri 08:45:48 AM 37.2075 -107.8392 23° Northeast 202 232 22,000 893 Climbing Denver Center
Fri 08:46:49 AM 37.2622 -107.8000 30° Northeast 202 232 23,000 934 Climbing Denver Center
Fri 08:47:50 AM 37.3144 -107.7722 23° Northeast 210 242 23,900 836 Climbing Denver Center
Fri 08:48:51 AM 37.3653 -107.7481 21° North 206 237 24,700 590 Climbing Denver Center
Fri 08:49:52 AM 37.4258 -107.7122 25° Northeast 212 244 25,100 197 Climbing Denver Center
Fri 08:50:53 AM 37.4833 -107.6783 25° Northeast 234 269 25,100  Level Denver Center
Fri 08:51:54 AM 37.5447 -107.6469 22° Northeast 245 282 25,100  Level Denver Center
Fri 08:52:54 AM 37.6131 -107.5994 29° Northeast 251 289 25,100  Level Denver Center
Fri 08:53:55 AM 37.6733 -107.5600 27° Northeast 253 291 25,100  Level Denver Center
Fri 08:54:56 AM 37.7322 -107.5197 28° Northeast 251 289 25,100 -45 Level Denver Center
Fri 08:56:09 AM 37.7972 -107.4647 34° Northeast 251 289 25,000  Descending Denver Center
Fri 08:57:10 AM 37.8619 -107.4078 35° Northeast 252 290 25,100 49 Climbing Denver Center
Fri 08:58:11 AM 37.9289 -107.3558 31° Northeast 252 290 25,100  Level Denver Center
Fri 08:59:12 AM 37.9842 -107.3072 35° Northeast 253 291 25,100  Level Denver Center
Fri 09:00:12 AM 38.0447 -107.2667 28° Northeast 255 293 25,100 -50 Level Denver Center
Fri 09:01:13 AM 38.1164 -107.2419 15° North 257 296 25,000 -49 Descending Denver Center
Fri 09:02:14 AM 38.1817 -107.2144 18° North 258 297 25,000 49 Level Denver Center
Fri 09:03:15 AM 38.2492 -107.1767 24° Northeast 253 291 25,100 49 Climbing Denver Center
Fri 09:04:16 AM 38.3111 -107.1353 28° Northeast 250 288 25,100  Level Denver Center
Fri 09:05:16 AM 38.3708 -107.0858 33° Northeast 253 291 25,100 -50 Level Denver Center
Fri 09:06:17 AM 38.4328 -107.0411 29° Northeast 255 293 25,000 -49 Descending Denver Center
Fri 09:07:18 AM 38.4822 -106.9753 46° Northeast 262 302 25,000  Level Denver Center
Fri 09:08:19 AM 38.5053 -106.8875 71° East 263 303 25,000  Level Denver Center
Fri 09:09:20 AM 38.5294 -106.8003 70° East 261 300 25,000 49 Level Denver Center
Fri 09:10:21 AM 38.5525 -106.7106 72° East 264 304 25,100  Climbing Denver Center
Fri 09:11:22 AM 38.5806 -106.6233 68° East 265 305 25,000 -50 Descending Denver Center
Fri 09:12:22 AM 38.6083 -106.5378 67° East 263 303 25,000  Level Denver Center
Fri 09:13:23 AM 38.6392 -106.4325 69° East 263 303 25,000  Level Denver Center
Fri 09:14:24 AM 38.6658 -106.3447 69° East 264 304 25,000  Level Denver Center
Fri 09:15:25 AM 38.6975 -106.2603 64° Northeast 265 305 25,000 49 Level Denver Center
Fri 09:16:26 AM 38.7261 -106.1747 67° East 263 303 25,100 -344 Climbing Denver Center
Fri 09:17:27 AM 38.7653 -106.0931 58° Northeast 260 299 24,300 -1,180 Descending Denver Center
Fri 09:18:28 AM 38.8089 -106.0289 49° Northeast 252 290 22,700 -1,770 Descending Denver Center
Fri 09:19:29 AM 38.8464 -105.9583 56° Northeast 250 288 20,700 -2,115 Descending Denver Center
Fri 09:20:30 AM 38.8892 -105.8867 53° Northeast 248 285 18,400 -1,770 Descending Denver Center
Fri 09:21:31 AM 38.9344 -105.8086 53° Northeast 255 293 17,100 -1,180 Descending Denver Center
Fri 09:22:32 AM 38.9781 -105.7392 51° Northeast 259 298 16,000 -541 Descending Denver Center
Fri 09:23:33 AM 39.0308 -105.6625 48° Northeast 257 296 16,000  Level Denver Center
Fri 09:24:33 AM 39.0753 -105.5936 50° Northeast 260 299 16,000 -50 Level Denver Center
Fri 09:25:34 AM 39.1247 -105.5086 53° Northeast 262 302 15,900  Descending Denver Center
Fri 09:26:35 AM 39.1664 -105.4386 52° Northeast 261 300 16,000 49 Climbing Denver Center
Fri 09:27:36 AM 39.2114 -105.3656 52° Northeast 260 299 16,000 -148 Level Denver Center
Fri 09:28:37 AM 39.2578 -105.2933 50° Northeast 262 302 15,700 -885 Descending Denver Center
Fri 09:29:38 AM 39.3081 -105.2217 48° Northeast 251 289 14,200 -1,328 Descending Denver Center
Fri 09:30:39 AM 39.3611 -105.1650 40° Northeast 249 287 13,000 -590 Descending Denver Center
Fri 09:31:40 AM 39.4139 -105.1047 41° Northeast 253 291 13,000  Level Denver Center
Fri 09:32:41 AM 39.4694 -105.0500 37° Northeast 252 290 13,000 49 Level Denver Center
Fri 09:33:42 AM 39.5242 -104.9925 39° Northeast 253 291 13,100  Climbing Denver Center
Fri 09:34:43 AM 39.5819 -104.9275 41° Northeast 256 295 13,000 -49 Descending Denver Center
Fri 09:35:44 AM 39.6361 -104.8633 42° Northeast 263 303 13,000  Level Denver Center
Fri 09:36:45 AM 39.6886 -104.8019 42° Northeast 257 296 13,000 -148 Level Denver Center
Fri 09:37:46 AM 39.7422 -104.7439 40° Northeast 252 290 12,700 -836 Descending Denver Center
Fri 09:38:47 AM 39.7783 -104.6633 60° Northeast 255 293 11,300 -836 Descending Denver Center
Fri 09:39:48 AM 39.7739 -104.5725 94° East 254 292 11,000 -590 Descending Denver Center
Fri 09:40:49 AM 39.7808 -104.4994 83° East 214 246 10,100 -1,525 Descending Denver Center
Fri 09:41:50 AM 39.8364 -104.4942 North 206 237 7,900 -1,707 Descending Denver Center
Fri 09:42:52 AM 39.8736 -104.5342 320° Northwest 172 198 6,600 -1,091 Descending Denver Center
Fri 09:43:29 AM 39.8833 -104.5667 291° West 168 193 6,100 -590 Descending Denver TRACON
Fri 09:44:54 AM 39.8772 -104.6400 264° West 145 167 5,400 -494 Descending Denver Center
Fri 09:46:00 AM 39.8500 -104.6667 277° West  Level FlightAware Approximate
Fri 09:53:00 AM 39.8617 -104.6732 277° West  Level Estimated
Fri 09:54:00 AM 39.8617 -104.6732 277° West  Level Estimated
Fri 09:55:00 AM 39.8617 -104.6732 277° West  Level Estimated

Login

Don't have an account? Register now (free) for customized features, flight alerts, and more!